EZY85R LEMD-LXGB
Flight info
| Callsign | EZY85R |
|---|---|
| Flight time | 0h 55m |
| Altitude | 37000 |
| Route | VTB N10 INPAN DCT MOCEQ DCT VULPE N864 PIMOS |
| Aircraft | A320/M-SDE3FGHIRWY/LB1 |
Departure
| Time | 2026-05-05 20:26 |
|---|---|
| Airport | Adolfo Suárez Madrid–Barajas Airport (LEMD) |
Arrival
| Time | 2026-05-05 21:22 |
|---|---|
| Airport | Gibraltar Airport (LXGB) |
| Time | Latitude | Longitude | Altitude | Speed | Heading |
|---|---|---|---|---|---|
| 2026-05-05 20:03 | 40.49551 | -3.58971 | 2022 ft | 0 kts | 271° |
| 2026-05-05 20:08 | 40.49603 | -3.58969 | 2022 ft | 0 kts | 271° |
| 2026-05-05 20:18 | 40.49603 | -3.58968 | 2022 ft | 1 kts | 271° |
| 2026-05-05 20:18 | 40.49602 | -3.58948 | 2032 ft | 3 kts | 274° |
| 2026-05-05 20:18 | 40.49600 | -3.58922 | 2032 ft | 3 kts | 285° |
| 2026-05-05 20:18 | 40.49593 | -3.58898 | 2033 ft | 3 kts | 309° |
| 2026-05-05 20:19 | 40.49581 | -3.58885 | 2029 ft | 2 kts | 354° |
| 2026-05-05 20:19 | 40.49577 | -3.58884 | 2027 ft | 0 kts | 360° |
| 2026-05-05 20:21 | 40.49579 | -3.58884 | 2028 ft | 2 kts | 359° |
| 2026-05-05 20:21 | 40.49629 | -3.58881 | 2023 ft | 9 kts | 15° |
| 2026-05-05 20:21 | 40.49648 | -3.58823 | 2024 ft | 7 kts | 89° |
| 2026-05-05 20:21 | 40.49647 | -3.58740 | 2022 ft | 18 kts | 90° |
| 2026-05-05 20:22 | 40.49647 | -3.58558 | 2017 ft | 20 kts | 89° |
| 2026-05-05 20:22 | 40.49648 | -3.58356 | 2014 ft | 24 kts | 89° |
| 2026-05-05 20:22 | 40.49647 | -3.58137 | 2006 ft | 23 kts | 91° |
| 2026-05-05 20:22 | 40.49639 | -3.57953 | 1999 ft | 15 kts | 120° |
| 2026-05-05 20:23 | 40.49545 | -3.57929 | 1999 ft | 13 kts | 171° |
| 2026-05-05 20:23 | 40.49504 | -3.57839 | 1995 ft | 13 kts | 84° |
| 2026-05-05 20:23 | 40.49504 | -3.57706 | 1989 ft | 16 kts | 88° |
| 2026-05-05 20:23 | 40.49513 | -3.57614 | 1986 ft | 2 kts | 73° |
| 2026-05-05 20:24 | 40.49518 | -3.57596 | 1986 ft | 2 kts | 69° |
| 2026-05-05 20:24 | 40.49522 | -3.57584 | 1988 ft | 0 kts | 63° |
| 2026-05-05 20:25 | 40.49531 | -3.57563 | 1987 ft | 10 kts | 61° |
| 2026-05-05 20:25 | 40.49565 | -3.57486 | 1986 ft | 9 kts | 57° |
| 2026-05-05 20:25 | 40.49645 | -3.57452 | 1985 ft | 27 kts | 1° |
| 2026-05-05 20:26 | 40.50096 | -3.57458 | 1989 ft | 99 kts | 360° |
| 2026-05-05 20:26 | 40.50978 | -3.57465 | 1997 ft | 152 kts | 359° |
| 2026-05-05 20:26 | 40.52097 | -3.57449 | 2416 ft | 162 kts | 359° |
| 2026-05-05 20:26 | 40.53217 | -3.57392 | 3144 ft | 162 kts | 359° |
| 2026-05-05 20:27 | 40.54378 | -3.57417 | 3628 ft | 175 kts | 357° |
| 2026-05-05 20:27 | 40.55604 | -3.57701 | 4084 ft | 184 kts | 324° |
| 2026-05-05 20:27 | 40.56359 | -3.59119 | 4473 ft | 203 kts | 293° |
| 2026-05-05 20:27 | 40.56804 | -3.60944 | 5100 ft | 209 kts | 297° |
| 2026-05-05 20:28 | 40.57628 | -3.62453 | 5919 ft | 210 kts | 322° |
| 2026-05-05 20:28 | 40.58857 | -3.63551 | 6621 ft | 217 kts | 330° |
| 2026-05-05 20:28 | 40.60208 | -3.64478 | 7385 ft | 219 kts | 329° |
| 2026-05-05 20:28 | 40.61222 | -3.65800 | 8364 ft | 206 kts | 300° |
| 2026-05-05 20:29 | 40.61680 | -3.67657 | 8735 ft | 225 kts | 272° |
| 2026-05-05 20:29 | 40.61405 | -3.69691 | 9354 ft | 233 kts | 246° |
| 2026-05-05 20:29 | 40.60513 | -3.71476 | 10125 ft | 240 kts | 229° |
| 2026-05-05 20:29 | 40.59197 | -3.72900 | 10760 ft | 251 kts | 213° |
| 2026-05-05 20:30 | 40.57546 | -3.73860 | 11163 ft | 274 kts | 199° |
| 2026-05-05 20:30 | 40.55564 | -3.74005 | 11450 ft | 302 kts | 169° |
| 2026-05-05 20:30 | 40.53632 | -3.72657 | 11656 ft | 332 kts | 137° |
| 2026-05-05 20:30 | 40.52199 | -3.70192 | 12181 ft | 346 kts | 121° |
| 2026-05-05 20:31 | 40.51116 | -3.67335 | 12923 ft | 352 kts | 115° |
| 2026-05-05 20:31 | 40.50148 | -3.64361 | 13691 ft | 356 kts | 114° |
| 2026-05-05 20:31 | 40.49124 | -3.61378 | 14369 ft | 360 kts | 119° |
| 2026-05-05 20:31 | 40.47667 | -3.58699 | 14989 ft | 363 kts | 136° |
| 2026-05-05 20:32 | 40.45676 | -3.56678 | 15608 ft | 363 kts | 153° |
| 2026-05-05 20:32 | 40.43338 | -3.55430 | 16229 ft | 363 kts | 168° |
| 2026-05-05 20:32 | 40.40844 | -3.54912 | 16830 ft | 364 kts | 179° |
| 2026-05-05 20:32 | 40.38338 | -3.54610 | 17443 ft | 369 kts | 178° |
| 2026-05-05 20:33 | 40.35767 | -3.54270 | 18073 ft | 373 kts | 178° |
| 2026-05-05 20:33 | 40.33173 | -3.53910 | 18638 ft | 377 kts | 178° |
| 2026-05-05 20:33 | 40.30547 | -3.53540 | 19184 ft | 381 kts | 179° |
| 2026-05-05 20:33 | 40.27901 | -3.53171 | 19734 ft | 384 kts | 179° |
| 2026-05-05 20:34 | 40.25227 | -3.52801 | 20294 ft | 388 kts | 179° |
| 2026-05-05 20:34 | 40.22532 | -3.52430 | 20854 ft | 391 kts | 180° |
| 2026-05-05 20:34 | 40.19808 | -3.52058 | 21390 ft | 395 kts | 180° |
| 2026-05-05 20:34 | 40.17066 | -3.51686 | 21957 ft | 398 kts | 181° |
| 2026-05-05 20:35 | 40.14304 | -3.51310 | 22506 ft | 401 kts | 181° |
| 2026-05-05 20:35 | 40.11556 | -3.50933 | 23062 ft | 404 kts | 181° |
| 2026-05-05 20:35 | 40.08747 | -3.50550 | 23593 ft | 407 kts | 181° |
| 2026-05-05 20:35 | 40.05920 | -3.50168 | 24044 ft | 410 kts | 181° |
| 2026-05-05 20:36 | 40.03074 | -3.49784 | 24504 ft | 412 kts | 181° |
| 2026-05-05 20:36 | 40.00218 | -3.49399 | 24957 ft | 414 kts | 181° |
| 2026-05-05 20:36 | 39.97349 | -3.49011 | 25357 ft | 416 kts | 181° |
| 2026-05-05 20:36 | 39.94468 | -3.48618 | 25837 ft | 416 kts | 181° |
| 2026-05-05 20:37 | 39.91583 | -3.48224 | 26280 ft | 418 kts | 181° |
| 2026-05-05 20:37 | 39.88687 | -3.47829 | 26702 ft | 419 kts | 181° |
| 2026-05-05 20:37 | 39.85779 | -3.47436 | 27112 ft | 421 kts | 181° |
| 2026-05-05 20:37 | 39.82895 | -3.47050 | 27507 ft | 423 kts | 181° |
| 2026-05-05 20:38 | 39.79957 | -3.46659 | 27905 ft | 425 kts | 181° |
| 2026-05-05 20:38 | 39.77015 | -3.46357 | 28296 ft | 421 kts | 189° |
| 2026-05-05 20:38 | 39.74183 | -3.46935 | 28643 ft | 406 kts | 205° |
| 2026-05-05 20:38 | 39.71694 | -3.48516 | 29020 ft | 394 kts | 221° |
| 2026-05-05 20:39 | 39.69712 | -3.50903 | 29374 ft | 386 kts | 236° |
| 2026-05-05 20:39 | 39.68348 | -3.53868 | 29727 ft | 382 kts | 250° |
| 2026-05-05 20:39 | 39.67598 | -3.57167 | 30059 ft | 382 kts | 256° |
| 2026-05-05 20:39 | 39.66687 | -3.60421 | 30327 ft | 386 kts | 245° |
| 2026-05-05 20:40 | 39.65206 | -3.63300 | 30599 ft | 394 kts | 232° |
| 2026-05-05 20:40 | 39.63317 | -3.65895 | 30863 ft | 397 kts | 230° |
| 2026-05-05 20:40 | 39.61382 | -3.68458 | 31141 ft | 399 kts | 230° |
| 2026-05-05 20:40 | 39.59419 | -3.71013 | 31405 ft | 400 kts | 230° |
| 2026-05-05 20:41 | 39.57428 | -3.73539 | 31726 ft | 402 kts | 226° |
| 2026-05-05 20:41 | 39.55174 | -3.75717 | 32075 ft | 407 kts | 217° |
| 2026-05-05 20:41 | 39.52725 | -3.77575 | 32440 ft | 407 kts | 216° |
| 2026-05-05 20:41 | 39.50284 | -3.79425 | 32779 ft | 405 kts | 217° |
| 2026-05-05 20:42 | 39.47898 | -3.81237 | 33218 ft | 402 kts | 217° |
| 2026-05-05 20:42 | 39.45496 | -3.83065 | 33593 ft | 400 kts | 217° |
| 2026-05-05 20:42 | 39.43096 | -3.84894 | 33926 ft | 400 kts | 217° |
| 2026-05-05 20:42 | 39.40702 | -3.86715 | 34230 ft | 399 kts | 217° |
| 2026-05-05 20:43 | 39.38310 | -3.88535 | 34493 ft | 399 kts | 217° |
| 2026-05-05 20:43 | 39.35914 | -3.90359 | 34738 ft | 399 kts | 217° |
| 2026-05-05 20:43 | 39.33518 | -3.92179 | 34970 ft | 400 kts | 217° |
| 2026-05-05 20:43 | 39.31116 | -3.94001 | 35203 ft | 400 kts | 217° |
| 2026-05-05 20:44 | 39.28714 | -3.95824 | 35424 ft | 401 kts | 217° |
| 2026-05-05 20:44 | 39.26339 | -3.97622 | 35644 ft | 401 kts | 217° |
| 2026-05-05 20:44 | 39.23935 | -3.99439 | 35890 ft | 401 kts | 217° |
| 2026-05-05 20:44 | 39.21528 | -4.01256 | 36103 ft | 401 kts | 217° |
| 2026-05-05 20:45 | 39.16710 | -4.04894 | 36516 ft | 402 kts | 216° |
| 2026-05-05 20:45 | 39.14297 | -4.06710 | 36713 ft | 402 kts | 216° |
| 2026-05-05 20:45 | 39.11880 | -4.08533 | 36915 ft | 403 kts | 216° |
| 2026-05-05 20:46 | 39.07057 | -4.12163 | 36999 ft | 400 kts | 216° |
| 2026-05-05 20:46 | 39.02283 | -4.15749 | 36998 ft | 400 kts | 216° |
| 2026-05-05 20:47 | 38.97480 | -4.19358 | 36997 ft | 399 kts | 216° |
| 2026-05-05 20:47 | 38.92684 | -4.22952 | 36997 ft | 399 kts | 216° |
| 2026-05-05 20:48 | 38.87883 | -4.26535 | 37000 ft | 399 kts | 216° |
| 2026-05-05 20:48 | 38.83080 | -4.30114 | 37005 ft | 399 kts | 216° |
| 2026-05-05 20:49 | 38.78309 | -4.33665 | 36978 ft | 399 kts | 216° |
| 2026-05-05 20:49 | 38.73504 | -4.37239 | 36988 ft | 399 kts | 216° |
| 2026-05-05 20:50 | 38.68696 | -4.40810 | 36995 ft | 400 kts | 216° |
| 2026-05-05 20:50 | 38.63887 | -4.44382 | 37004 ft | 400 kts | 216° |
| 2026-05-05 20:51 | 38.59110 | -4.47919 | 37011 ft | 400 kts | 216° |
| 2026-05-05 20:51 | 38.54294 | -4.51472 | 36984 ft | 400 kts | 216° |
| 2026-05-05 20:52 | 38.49480 | -4.55030 | 36991 ft | 400 kts | 216° |
| 2026-05-05 20:52 | 38.44664 | -4.58584 | 36998 ft | 400 kts | 216° |
| 2026-05-05 20:53 | 38.39844 | -4.62140 | 37006 ft | 400 kts | 216° |
| 2026-05-05 20:53 | 38.35053 | -4.65661 | 37007 ft | 400 kts | 215° |
| 2026-05-05 20:54 | 38.29992 | -4.68711 | 37009 ft | 410 kts | 202° |
| 2026-05-05 20:54 | 38.24317 | -4.70037 | 37005 ft | 416 kts | 195° |
| 2026-05-05 20:55 | 38.18600 | -4.71197 | 36997 ft | 416 kts | 195° |
| 2026-05-05 20:55 | 38.12876 | -4.72358 | 37001 ft | 417 kts | 196° |
| 2026-05-05 20:56 | 38.07189 | -4.73522 | 36982 ft | 417 kts | 195° |
| 2026-05-05 20:56 | 38.01461 | -4.74692 | 36993 ft | 417 kts | 195° |
| 2026-05-05 20:57 | 37.95734 | -4.75869 | 36972 ft | 417 kts | 195° |
| 2026-05-05 20:57 | 37.90003 | -4.77038 | 36975 ft | 417 kts | 195° |
| 2026-05-05 20:58 | 37.84304 | -4.78183 | 36952 ft | 417 kts | 195° |
| 2026-05-05 20:58 | 37.81432 | -4.78762 | 36775 ft | 418 kts | 195° |
| 2026-05-05 20:58 | 37.78563 | -4.79343 | 36509 ft | 417 kts | 195° |
| 2026-05-05 20:59 | 37.75702 | -4.79924 | 36253 ft | 416 kts | 195° |
| 2026-05-05 20:59 | 37.72841 | -4.80506 | 35994 ft | 416 kts | 195° |
| 2026-05-05 20:59 | 37.69983 | -4.81087 | 35740 ft | 416 kts | 195° |
| 2026-05-05 20:59 | 37.67133 | -4.81664 | 35501 ft | 414 kts | 195° |
| 2026-05-05 21:00 | 37.64298 | -4.82234 | 35247 ft | 411 kts | 195° |
| 2026-05-05 21:00 | 37.61517 | -4.82791 | 34985 ft | 409 kts | 195° |
| 2026-05-05 21:00 | 37.58713 | -4.83349 | 34739 ft | 406 kts | 195° |
| 2026-05-05 21:00 | 37.55942 | -4.83900 | 34297 ft | 402 kts | 195° |
| 2026-05-05 21:01 | 37.53189 | -4.84450 | 33755 ft | 399 kts | 195° |
| 2026-05-05 21:01 | 37.50461 | -4.84998 | 33241 ft | 395 kts | 195° |
| 2026-05-05 21:01 | 37.47759 | -4.85543 | 32748 ft | 391 kts | 195° |
| 2026-05-05 21:01 | 37.45080 | -4.86084 | 32255 ft | 388 kts | 195° |
| 2026-05-05 21:02 | 37.42420 | -4.86619 | 31769 ft | 385 kts | 195° |
| 2026-05-05 21:02 | 37.39817 | -4.87141 | 31297 ft | 383 kts | 195° |
| 2026-05-05 21:02 | 37.37197 | -4.87666 | 30799 ft | 380 kts | 195° |
| 2026-05-05 21:02 | 37.34592 | -4.88188 | 30363 ft | 378 kts | 195° |
| 2026-05-05 21:03 | 37.32005 | -4.88704 | 29880 ft | 376 kts | 195° |
| 2026-05-05 21:03 | 37.29431 | -4.89217 | 29424 ft | 373 kts | 195° |
| 2026-05-05 21:03 | 37.26884 | -4.89722 | 28980 ft | 369 kts | 195° |
| 2026-05-05 21:03 | 37.24358 | -4.90226 | 28553 ft | 366 kts | 195° |
| 2026-05-05 21:04 | 37.21853 | -4.90728 | 28125 ft | 363 kts | 195° |
| 2026-05-05 21:04 | 37.19375 | -4.91227 | 27710 ft | 359 kts | 194° |
| 2026-05-05 21:04 | 37.16950 | -4.91712 | 27295 ft | 356 kts | 194° |
| 2026-05-05 21:04 | 37.14510 | -4.92197 | 26879 ft | 353 kts | 194° |
| 2026-05-05 21:05 | 37.12092 | -4.92678 | 26443 ft | 351 kts | 194° |
| 2026-05-05 21:05 | 37.09692 | -4.93153 | 26038 ft | 348 kts | 194° |
| 2026-05-05 21:05 | 37.07311 | -4.93625 | 25604 ft | 346 kts | 194° |
| 2026-05-05 21:05 | 37.04913 | -4.93935 | 25171 ft | 348 kts | 185° |
| 2026-05-05 21:06 | 37.02487 | -4.93834 | 24719 ft | 349 kts | 182° |
| 2026-05-05 21:06 | 37.00059 | -4.93705 | 24258 ft | 349 kts | 182° |
| 2026-05-05 21:06 | 36.97634 | -4.93576 | 23800 ft | 349 kts | 182° |
| 2026-05-05 21:06 | 36.95242 | -4.93449 | 23294 ft | 349 kts | 181° |
| 2026-05-05 21:07 | 36.92822 | -4.93322 | 22820 ft | 347 kts | 182° |
| 2026-05-05 21:07 | 36.90412 | -4.93196 | 22365 ft | 346 kts | 181° |
| 2026-05-05 21:07 | 36.88015 | -4.93074 | 21900 ft | 344 kts | 182° |
| 2026-05-05 21:07 | 36.85623 | -4.92957 | 21467 ft | 343 kts | 182° |
| 2026-05-05 21:08 | 36.83240 | -4.92839 | 21023 ft | 342 kts | 182° |
| 2026-05-05 21:08 | 36.80866 | -4.92720 | 20579 ft | 341 kts | 182° |
| 2026-05-05 21:08 | 36.78495 | -4.92599 | 20146 ft | 341 kts | 181° |
| 2026-05-05 21:08 | 36.76157 | -4.92480 | 19705 ft | 341 kts | 181° |
| 2026-05-05 21:09 | 36.73790 | -4.92359 | 19276 ft | 341 kts | 181° |
| 2026-05-05 21:09 | 36.71423 | -4.92236 | 18838 ft | 341 kts | 181° |
| 2026-05-05 21:09 | 36.69056 | -4.92111 | 18406 ft | 340 kts | 181° |
| 2026-05-05 21:09 | 36.66692 | -4.91986 | 17931 ft | 340 kts | 181° |
| 2026-05-05 21:10 | 36.64332 | -4.91863 | 17486 ft | 339 kts | 181° |
| 2026-05-05 21:10 | 36.61985 | -4.91742 | 17074 ft | 337 kts | 181° |
| 2026-05-05 21:10 | 36.59648 | -4.91624 | 16660 ft | 335 kts | 181° |
| 2026-05-05 21:10 | 36.57325 | -4.91509 | 16249 ft | 334 kts | 181° |
| 2026-05-05 21:11 | 36.55036 | -4.91396 | 15843 ft | 333 kts | 181° |
| 2026-05-05 21:11 | 36.52726 | -4.91280 | 15436 ft | 332 kts | 181° |
| 2026-05-05 21:11 | 36.50419 | -4.91163 | 15032 ft | 332 kts | 181° |
| 2026-05-05 21:11 | 36.48117 | -4.91045 | 14635 ft | 330 kts | 181° |
| 2026-05-05 21:12 | 36.45829 | -4.90926 | 14242 ft | 329 kts | 181° |
| 2026-05-05 21:12 | 36.43548 | -4.90806 | 13828 ft | 327 kts | 181° |
| 2026-05-05 21:12 | 36.41276 | -4.90687 | 13412 ft | 326 kts | 181° |
| 2026-05-05 21:12 | 36.39023 | -4.90571 | 12995 ft | 323 kts | 182° |
| 2026-05-05 21:13 | 36.36800 | -4.90457 | 12701 ft | 317 kts | 182° |
| 2026-05-05 21:13 | 36.34645 | -4.90348 | 12374 ft | 313 kts | 182° |
| 2026-05-05 21:13 | 36.32480 | -4.90236 | 11994 ft | 310 kts | 182° |
| 2026-05-05 21:13 | 36.30331 | -4.90124 | 11602 ft | 308 kts | 182° |
| 2026-05-05 21:14 | 36.28190 | -4.90015 | 11208 ft | 307 kts | 182° |
| 2026-05-05 21:14 | 36.26062 | -4.89906 | 10813 ft | 305 kts | 182° |
| 2026-05-05 21:14 | 36.23949 | -4.89800 | 10545 ft | 300 kts | 181° |
| 2026-05-05 21:14 | 36.21871 | -4.89695 | 10088 ft | 301 kts | 182° |
| 2026-05-05 21:15 | 36.19769 | -4.89590 | 9599 ft | 303 kts | 181° |
| 2026-05-05 21:15 | 36.17672 | -4.89487 | 9180 ft | 301 kts | 183° |
| 2026-05-05 21:15 | 36.15614 | -4.89384 | 8764 ft | 299 kts | 183° |
| 2026-05-05 21:15 | 36.13616 | -4.89773 | 8361 ft | 287 kts | 208° |
| 2026-05-05 21:16 | 36.12153 | -4.91333 | 7986 ft | 277 kts | 240° |
| 2026-05-05 21:16 | 36.11639 | -4.93566 | 7638 ft | 271 kts | 269° |
| 2026-05-05 21:16 | 36.11807 | -4.95868 | 7285 ft | 268 kts | 280° |
| 2026-05-05 21:16 | 36.12205 | -4.98108 | 6918 ft | 266 kts | 283° |
| 2026-05-05 21:17 | 36.12636 | -5.00329 | 6539 ft | 265 kts | 283° |
| 2026-05-05 21:17 | 36.13028 | -5.02549 | 6142 ft | 264 kts | 281° |
| 2026-05-05 21:17 | 36.13369 | -5.04767 | 5760 ft | 262 kts | 280° |
| 2026-05-05 21:17 | 36.13662 | -5.06950 | 5377 ft | 260 kts | 279° |
| 2026-05-05 21:18 | 36.13927 | -5.09152 | 5000 ft | 258 kts | 278° |
| 2026-05-05 21:18 | 36.14179 | -5.11345 | 4600 ft | 257 kts | 279° |
| 2026-05-05 21:18 | 36.14423 | -5.13523 | 4198 ft | 255 kts | 280° |
| 2026-05-05 21:18 | 36.14655 | -5.15687 | 3795 ft | 253 kts | 278° |
| 2026-05-05 21:19 | 36.14873 | -5.17819 | 3364 ft | 245 kts | 280° |
| 2026-05-05 21:19 | 36.15068 | -5.19850 | 2883 ft | 232 kts | 279° |
| 2026-05-05 21:19 | 36.15243 | -5.21781 | 2401 ft | 219 kts | 279° |
| 2026-05-05 21:19 | 36.15397 | -5.23609 | 1892 ft | 209 kts | 277° |
| 2026-05-05 21:20 | 36.15472 | -5.25336 | 1455 ft | 191 kts | 274° |
| 2026-05-05 21:20 | 36.15458 | -5.26878 | 1079 ft | 175 kts | 264° |
| 2026-05-05 21:20 | 36.15313 | -5.28326 | 980 ft | 159 kts | 268° |
| 2026-05-05 21:20 | 36.15275 | -5.29587 | 870 ft | 139 kts | 275° |
| 2026-05-05 21:21 | 36.15286 | -5.30740 | 625 ft | 131 kts | 270° |
| 2026-05-05 21:21 | 36.15239 | -5.31849 | 385 ft | 127 kts | 269° |
| 2026-05-05 21:21 | 36.15193 | -5.32915 | 232 ft | 122 kts | 269° |
| 2026-05-05 21:21 | 36.15153 | -5.33965 | 62 ft | 122 kts | 269° |
| 2026-05-05 21:22 | 36.15129 | -5.34911 | 19 ft | 83 kts | 268° |
| 2026-05-05 21:22 | 36.15111 | -5.35271 | 20 ft | 16 kts | 267° |
| 2026-05-05 21:22 | 36.15112 | -5.35461 | 19 ft | 24 kts | 268° |
| 2026-05-05 21:22 | 36.15097 | -5.35660 | 17 ft | 23 kts | 266° |
| 2026-05-05 21:23 | 36.15080 | -5.35842 | 18 ft | 15 kts | 242° |
| 2026-05-05 21:23 | 36.15061 | -5.35945 | 18 ft | 12 kts | 319° |
| 2026-05-05 21:23 | 36.15100 | -5.35893 | 16 ft | 11 kts | 101° |
| 2026-05-05 21:23 | 36.15092 | -5.35681 | 17 ft | 35 kts | 84° |
| 2026-05-05 21:24 | 36.15107 | -5.35379 | 20 ft | 36 kts | 95° |
| 2026-05-05 21:24 | 36.15112 | -5.35076 | 20 ft | 36 kts | 85° |
| 2026-05-05 21:24 | 36.15118 | -5.34840 | 19 ft | 22 kts | 87° |
| 2026-05-05 21:24 | 36.15140 | -5.34690 | 18 ft | 14 kts | 44° |
| 2026-05-05 21:25 | 36.15206 | -5.34676 | 18 ft | 8 kts | 8° |
| 2026-05-05 21:25 | 36.15258 | -5.34672 | 18 ft | 7 kts | 358° |
| 2026-05-05 21:25 | 36.15290 | -5.34675 | 18 ft | 2 kts | 356° |
| 2026-05-05 21:25 | 36.15300 | -5.34675 | 18 ft | 1 kts | 356° |
| 2026-05-05 21:26 | 36.15302 | -5.34676 | 18 ft | 0 kts | 357° |